createdAt,value
2023-01-10T00:01:56.999Z,21.70
2023-01-10T00:04:34.965Z,23.50
2023-01-10T00:07:18.103Z,22.50
2023-01-10T00:10:14.548Z,21.90
2023-01-10T00:13:27.013Z,22.40
2023-01-10T00:16:11.993Z,23.80
2023-01-10T00:18:46.020Z,23.30
2023-01-10T00:21:19.949Z,24.00
2023-01-10T00:24:19.274Z,22.90
2023-01-10T00:27:04.578Z,24.80
2023-01-10T00:30:01.878Z,25.50
2023-01-10T00:32:38.662Z,25.00
2023-01-10T00:35:14.413Z,25.70
2023-01-10T00:37:52.444Z,24.40
2023-01-10T00:40:26.815Z,24.10
2023-01-10T00:43:19.581Z,24.70
2023-01-10T00:46:13.768Z,25.00
2023-01-10T00:48:47.700Z,24.10
2023-01-10T00:51:25.758Z,25.70
2023-01-10T00:54:00.148Z,26.00
2023-01-10T00:56:47.966Z,25.50
2023-01-10T00:59:41.280Z,25.80
2023-01-10T01:02:35.664Z,24.10
2023-01-10T01:05:30.359Z,26.80
2023-01-10T01:08:24.543Z,25.50
2023-01-10T01:11:18.670Z,26.10
2023-01-10T01:14:13.004Z,26.00
2023-01-10T01:17:07.529Z,26.30
2023-01-10T01:19:51.774Z,24.50
2023-01-10T01:22:46.019Z,24.90
2023-01-10T01:25:22.852Z,28.20
2023-01-10T01:27:59.967Z,26.60
2023-01-10T01:30:44.811Z,24.80
2023-01-10T01:33:31.784Z,26.70
2023-01-10T01:36:18.244Z,25.10
2023-01-10T01:39:04.184Z,27.20
2023-01-10T01:42:01.182Z,27.00
2023-01-10T01:44:38.136Z,26.60
2023-01-10T01:47:32.358Z,26.00
2023-01-10T01:50:21.488Z,25.70
2023-01-10T01:53:21.373Z,26.10
2023-01-10T01:56:21.376Z,26.90
2023-01-10T01:59:20.662Z,25.60
2023-01-10T02:02:09.334Z,29.50
2023-01-10T02:05:07.506Z,26.90
2023-01-10T02:08:03.774Z,26.90
2023-01-10T02:10:44.083Z,27.70
2023-01-10T02:13:28.016Z,27.50
2023-01-10T02:16:05.426Z,28.90
2023-01-10T02:19:00.445Z,27.30
2023-01-10T02:22:26.299Z,28.70
2023-01-10T02:25:54.381Z,27.60
2023-01-10T02:29:04.015Z,27.80
2023-01-10T02:32:14.927Z,25.20
2023-01-10T02:35:00.024Z,25.80
2023-01-10T02:37:45.677Z,27.60
2023-01-10T02:40:35.987Z,27.90
2023-01-10T02:43:35.116Z,26.90
2023-01-10T02:46:25.662Z,25.90
2023-01-10T02:49:19.835Z,26.30
2023-01-10T02:52:04.953Z,24.50
2023-01-10T02:54:56.242Z,27.20
2023-01-10T02:57:43.454Z,26.20
2023-01-10T03:00:47.089Z,24.90
2023-01-10T03:03:35.870Z,26.70
2023-01-10T03:06:42.011Z,27.60
2023-01-10T03:09:42.847Z,25.50
2023-01-10T03:12:42.592Z,27.30
2023-01-10T03:15:31.924Z,26.60
2023-01-10T03:18:30.210Z,26.00
2023-01-10T03:21:25.669Z,25.40
2023-01-10T03:24:25.902Z,27.50
2023-01-10T03:27:26.240Z,24.80
2023-01-10T03:30:20.578Z,27.30
2023-01-10T03:33:18.369Z,28.10
2023-01-10T03:36:27.260Z,26.80
2023-01-10T03:39:14.874Z,26.30
2023-01-10T03:42:14.975Z,24.40
2023-01-10T03:45:16.529Z,24.90
2023-01-10T03:48:13.029Z,25.10
2023-01-10T03:50:48.544Z,24.80
2023-01-10T03:53:43.097Z,27.20
2023-01-10T03:56:47.509Z,26.90
2023-01-10T03:59:42.233Z,23.40
2023-01-10T04:02:16.387Z,24.90
2023-01-10T04:05:12.255Z,26.00
2023-01-10T04:07:57.336Z,24.90
2023-01-10T04:10:53.664Z,26.80
2023-01-10T04:13:47.234Z,26.40
2023-01-10T04:16:24.760Z,26.20
2023-01-10T04:19:09.467Z,24.00
2023-01-10T04:21:43.532Z,26.50
2023-01-10T04:24:37.769Z,24.70
2023-01-10T04:27:15.163Z,26.30
2023-01-10T04:29:59.787Z,25.60
2023-01-10T04:32:43.994Z,24.90
2023-01-10T04:35:29.066Z,24.20
2023-01-10T04:38:13.217Z,26.00
2023-01-10T04:41:07.307Z,26.40
2023-01-10T04:44:01.613Z,26.40
2023-01-10T04:46:45.964Z,26.70
2023-01-10T04:49:39.837Z,24.80
2023-01-10T04:52:26.540Z,23.50
2023-01-10T04:55:04.131Z,24.70
2023-01-10T04:57:58.416Z,24.70
2023-01-10T05:00:46.592Z,27.30
2023-01-10T05:03:30.971Z,26.60
2023-01-10T05:06:08.272Z,24.60
2023-01-10T05:08:52.614Z,23.60
2023-01-10T05:11:37.070Z,25.50
2023-01-10T05:14:11.013Z,24.70
2023-01-10T05:16:44.695Z,25.30
2023-01-10T05:19:39.282Z,25.20
2023-01-10T05:22:12.721Z,26.10
2023-01-10T05:24:57.240Z,24.70
2023-01-10T05:27:51.220Z,35.20
2023-01-10T05:30:37.963Z,25.70
2023-01-10T05:33:31.927Z,26.20
2023-01-10T05:36:10.234Z,26.70
2023-01-10T05:41:39.922Z,26.40
2023-01-10T05:44:24.554Z,23.90
2023-01-10T05:47:18.993Z,27.00
2023-01-10T05:50:14.234Z,24.00
2023-01-10T05:53:07.894Z,23.70
2023-01-10T05:56:03.561Z,25.30
2023-01-10T05:59:07.857Z,26.00
2023-01-10T06:02:06.019Z,24.60
2023-01-10T06:04:52.484Z,24.50
2023-01-10T06:07:36.564Z,25.20
2023-01-10T06:10:14.421Z,24.80
2023-01-10T06:12:58.761Z,24.00
2023-01-10T06:15:41.948Z,24.80
2023-01-10T06:18:36.043Z,25.70
2023-01-10T06:21:13.528Z,26.20
2023-01-10T06:23:47.421Z,24.70
2023-01-10T06:26:23.386Z,24.10
2023-01-10T06:29:17.270Z,24.60
2023-01-10T06:32:01.851Z,25.30
2023-01-10T06:34:38.233Z,25.50
2023-01-10T06:37:22.870Z,24.90
2023-01-10T06:40:11.870Z,26.10
2023-01-10T06:43:06.635Z,25.30
2023-01-10T06:45:40.719Z,24.40
2023-01-10T06:48:15.155Z,25.10
2023-01-10T06:50:48.780Z,23.70
2023-01-10T06:53:43.546Z,24.60
2023-01-10T06:56:20.578Z,24.50
2023-01-10T06:59:15.116Z,24.50
2023-01-10T07:02:11.743Z,24.00
2023-01-10T07:04:49.739Z,25.90
2023-01-10T07:07:43.871Z,24.70
2023-01-10T07:10:18.385Z,23.90
2023-01-10T07:13:13.127Z,23.00
2023-01-10T07:16:09.722Z,23.20
2023-01-10T07:19:03.754Z,23.10
2023-01-10T07:21:57.952Z,22.70
2023-01-10T07:24:42.193Z,22.20
2023-01-10T07:27:15.987Z,20.10
2023-01-10T07:30:02.017Z,21.60
2023-01-10T07:32:37.580Z,25.10
2023-01-10T07:35:12.425Z,25.70
2023-01-10T07:37:59.616Z,23.60
2023-01-10T07:40:53.960Z,23.40
2023-01-10T07:43:27.807Z,23.90
2023-01-10T07:46:14.472Z,22.40
2023-01-10T07:49:09.045Z,26.90
2023-01-10T07:51:53.226Z,28.30
2023-01-10T07:54:37.383Z,23.40
2023-01-10T07:57:13.746Z,23.20
2023-01-10T08:00:10.949Z,20.40
2023-01-10T08:03:06.641Z,19.30
2023-01-10T08:05:41.213Z,19.70
2023-01-10T08:08:25.284Z,19.60
2023-01-10T08:11:19.702Z,20.40
2023-01-10T08:13:54.083Z,21.10
2023-01-10T08:16:40.779Z,20.80
2023-01-10T08:19:34.793Z,19.90
2023-01-10T08:22:19.408Z,18.60
2023-01-10T08:25:14.209Z,18.70
2023-01-10T08:27:51.892Z,20.10
2023-01-10T08:30:49.010Z,19.70
2023-01-10T08:33:44.492Z,19.80
2023-01-10T08:36:38.830Z,20.90
2023-01-10T08:39:35.478Z,20.00
2023-01-10T08:42:12.403Z,18.40
2023-01-10T08:44:46.982Z,19.40
2023-01-10T08:50:25.354Z,20.30
2023-01-10T08:53:03.427Z,20.20
2023-01-10T08:55:50.249Z,19.50
2023-01-10T08:58:26.683Z,19.40
2023-01-10T09:01:12.293Z,19.00
2023-01-10T09:04:07.112Z,18.20
2023-01-10T09:07:01.421Z,18.30
2023-01-10T09:09:39.914Z,18.40
2023-01-10T09:12:45.793Z,20.10
2023-01-10T09:15:19.919Z,18.70
2023-01-10T09:18:15.887Z,21.60
2023-01-10T09:21:03.395Z,20.00
2023-01-10T09:23:40.372Z,17.90
2023-01-10T09:26:17.763Z,17.70
2023-01-10T09:29:05.168Z,17.80
2023-01-10T09:31:42.879Z,17.50
2023-01-10T09:34:25.337Z,19.60
2023-01-10T09:37:10.443Z,18.80
2023-01-10T09:39:58.679Z,19.10
2023-01-10T09:42:57.490Z,17.80
2023-01-10T09:46:00.639Z,18.40
2023-01-10T09:49:03.211Z,18.60
2023-01-10T09:52:00.037Z,18.70
2023-01-10T09:54:55.423Z,19.30
2023-01-10T09:57:29.805Z,18.20
2023-01-10T10:00:05.451Z,18.40
2023-01-10T10:02:47.308Z,19.30
2023-01-10T10:05:25.575Z,18.70
2023-01-10T10:08:16.773Z,19.20
2023-01-10T10:11:33.520Z,20.70
2023-01-10T10:14:35.502Z,20.00
2023-01-10T10:17:44.007Z,19.50
2023-01-10T10:20:47.347Z,19.40
2023-01-10T10:23:34.512Z,19.70
2023-01-10T10:26:29.989Z,18.00
2023-01-10T10:29:51.410Z,20.80
2023-01-10T10:32:44.829Z,18.60
2023-01-10T10:35:33.853Z,18.20
2023-01-10T10:38:24.085Z,18.00
2023-01-10T10:41:31.987Z,18.20
2023-01-10T10:44:29.523Z,20.20
2023-01-10T10:47:03.819Z,18.10
2023-01-10T10:50:02.929Z,19.10
2023-01-10T10:52:40.434Z,19.20
2023-01-10T10:55:20.292Z,19.00
2023-01-10T10:58:00.370Z,19.00
2023-01-10T11:00:37.786Z,20.60
2023-01-10T11:03:40.847Z,18.80
2023-01-10T11:06:17.777Z,18.20
2023-01-10T11:09:06.255Z,17.60
2023-01-10T11:11:46.102Z,18.00
2023-01-10T11:14:46.373Z,18.30
2023-01-10T11:17:41.974Z,17.70
2023-01-10T11:20:25.115Z,18.30
2023-01-10T11:23:10.959Z,18.70
2023-01-10T11:25:50.497Z,17.40
2023-01-10T11:28:46.190Z,17.30
2023-01-10T11:31:41.257Z,18.00
2023-01-10T11:34:37.868Z,19.50
2023-01-10T11:37:29.455Z,18.30
2023-01-10T11:40:26.108Z,19.30
2023-01-10T11:43:33.466Z,18.20
2023-01-10T11:46:27.800Z,17.00
2023-01-10T11:49:20.393Z,18.00
2023-01-10T11:51:59.315Z,17.20
2023-01-10T11:54:44.864Z,17.70
2023-01-10T11:57:24.366Z,18.00
2023-01-10T12:00:00.606Z,17.00
2023-01-10T12:02:46.846Z,18.10
2023-01-10T12:05:41.433Z,16.50
2023-01-10T12:08:36.986Z,18.60
2023-01-10T12:11:27.589Z,17.40
2023-01-10T12:14:03.441Z,17.60
2023-01-10T12:16:40.237Z,17.80
2023-01-10T12:19:34.088Z,17.30
2023-01-10T12:22:09.316Z,17.30
2023-01-10T12:24:53.598Z,19.70
2023-01-10T12:27:37.767Z,17.90
2023-01-10T12:30:36.611Z,16.90
2023-01-10T12:33:34.861Z,17.80
2023-01-10T12:36:32.574Z,17.40
2023-01-10T12:39:24.852Z,19.60
2023-01-10T12:42:36.104Z,18.40
2023-01-10T12:45:33.213Z,17.10
2023-01-10T12:48:20.075Z,17.70
2023-01-10T12:51:03.717Z,16.70
2023-01-10T12:54:04.008Z,17.40
2023-01-10T12:56:49.353Z,17.20
2023-01-10T12:59:37.730Z,17.60
2023-01-10T13:02:27.254Z,18.40
2023-01-10T13:05:20.690Z,19.10
2023-01-10T13:07:56.411Z,17.80
2023-01-10T13:10:53.529Z,18.40
2023-01-10T13:13:55.740Z,16.10
2023-01-10T13:16:38.444Z,17.60
2023-01-10T13:19:32.622Z,17.90
2023-01-10T13:22:24.985Z,18.40
2023-01-10T13:25:26.538Z,18.70
2023-01-10T13:28:26.176Z,18.60
2023-01-10T13:31:30.377Z,17.90
2023-01-10T13:34:26.816Z,16.90
2023-01-10T13:37:23.687Z,17.70
2023-01-10T13:40:28.497Z,17.90
2023-01-10T13:43:50.138Z,18.10
2023-01-10T13:46:45.854Z,18.50
2023-01-10T13:49:48.584Z,19.50
2023-01-10T13:52:43.102Z,17.00
2023-01-10T13:55:55.166Z,16.50
2023-01-10T13:59:07.310Z,16.30
2023-01-10T14:02:21.388Z,15.40
2023-01-10T14:05:18.037Z,16.60
2023-01-10T14:08:02.829Z,15.80
2023-01-10T14:11:09.162Z,18.60
2023-01-10T14:14:05.059Z,18.80
2023-01-10T14:17:12.399Z,17.00
2023-01-10T14:20:21.234Z,17.70
2023-01-10T14:23:23.114Z,16.60
2023-01-10T14:26:27.779Z,17.90
2023-01-10T14:29:07.837Z,17.50
2023-01-10T14:32:03.344Z,23.60
2023-01-10T14:34:39.523Z,21.60
2023-01-10T14:37:29.723Z,16.60
2023-01-10T14:40:06.050Z,15.40
2023-01-10T14:42:41.791Z,15.20
2023-01-10T14:45:40.404Z,15.30
2023-01-10T14:48:35.662Z,16.60
2023-01-10T14:51:30.796Z,16.80
2023-01-10T14:54:25.791Z,15.80
2023-01-10T14:56:59.874Z,15.90
2023-01-10T14:59:36.508Z,14.80
2023-01-10T15:02:23.191Z,14.50
2023-01-10T15:05:02.768Z,14.90
2023-01-10T15:07:57.853Z,14.80
2023-01-10T15:10:42.588Z,16.00
2023-01-10T15:13:50.496Z,17.00
2023-01-10T15:16:37.414Z,16.60
2023-01-10T15:19:19.837Z,16.40
2023-01-10T15:22:30.626Z,17.70
2023-01-10T15:25:27.379Z,16.30
2023-01-10T15:28:22.181Z,15.80
2023-01-10T15:31:17.926Z,16.60
2023-01-10T15:34:12.312Z,15.70
2023-01-10T15:37:03.362Z,15.20
2023-01-10T15:39:59.077Z,14.70
2023-01-10T15:42:53.915Z,15.70
2023-01-10T15:45:40.453Z,16.30
2023-01-10T15:48:37.492Z,16.80
2023-01-10T15:51:35.632Z,17.50
2023-01-10T15:54:34.859Z,18.00
2023-01-10T15:57:33.448Z,18.70
2023-01-10T16:00:27.564Z,18.60
2023-01-10T16:03:01.605Z,16.90
2023-01-10T16:05:59.518Z,18.30
2023-01-10T16:08:49.969Z,18.00
2023-01-10T16:11:50.612Z,18.20
2023-01-10T16:14:38.283Z,17.70
2023-01-10T16:17:14.993Z,17.40
2023-01-10T16:19:51.717Z,16.60
2023-01-10T16:22:47.550Z,17.50
2023-01-10T16:25:45.951Z,17.10
2023-01-10T16:31:32.742Z,17.70
2023-01-10T16:34:27.386Z,17.90
2023-01-10T16:37:21.762Z,17.80
2023-01-10T16:40:20.340Z,19.20
2023-01-10T16:43:15.102Z,18.60
2023-01-10T16:46:09.539Z,17.90
2023-01-10T16:49:06.936Z,18.90
2023-01-10T16:51:42.500Z,18.90
2023-01-10T16:54:28.085Z,18.10
2023-01-10T16:57:01.874Z,16.60
2023-01-10T16:59:35.691Z,17.30
2023-01-10T17:02:22.228Z,16.10
2023-01-10T17:05:08.544Z,18.80
2023-01-10T17:07:42.500Z,18.00
2023-01-10T17:10:16.719Z,19.30
2023-01-10T17:12:55.816Z,19.60
2023-01-10T17:15:40.465Z,18.10
2023-01-10T17:18:14.619Z,18.00
2023-01-10T17:21:13.021Z,17.90
2023-01-10T17:23:48.152Z,16.90
2023-01-10T17:26:35.382Z,18.80
2023-01-10T17:29:30.685Z,18.90
2023-01-10T17:32:25.127Z,18.80
2023-01-10T17:35:19.385Z,19.40
2023-01-10T17:38:16.880Z,18.30
2023-01-10T17:41:11.743Z,18.10
2023-01-10T17:44:06.151Z,18.70
2023-01-10T17:46:54.971Z,20.10
2023-01-10T17:49:39.129Z,21.10
2023-01-10T17:52:33.506Z,20.70
2023-01-10T17:55:09.256Z,20.50
2023-01-10T17:57:53.467Z,22.10
2023-01-10T18:00:49.187Z,21.30
2023-01-10T18:03:34.802Z,20.60
2023-01-10T18:06:22.827Z,20.30
2023-01-10T18:09:08.705Z,20.00
2023-01-10T18:12:03.225Z,19.80
2023-01-10T18:14:40.402Z,19.70
2023-01-10T18:17:15.094Z,19.10
2023-01-10T18:19:49.710Z,20.90
2023-01-10T18:23:01.701Z,19.50
2023-01-10T18:25:37.680Z,18.60
2023-01-10T18:28:39.021Z,18.60
2023-01-10T18:31:28.605Z,18.20
2023-01-10T18:34:23.626Z,18.70
2023-01-10T18:37:19.356Z,19.20
2023-01-10T18:40:16.346Z,19.80
2023-01-10T18:43:02.461Z,20.40
2023-01-10T18:45:39.147Z,19.20
2023-01-10T18:48:19.143Z,20.10
2023-01-10T18:51:06.661Z,17.40
2023-01-10T18:54:01.626Z,20.10
2023-01-10T18:56:51.488Z,21.00
2023-01-10T18:59:26.128Z,19.70
2023-01-10T19:02:02.631Z,20.50
2023-01-10T19:04:55.948Z,19.50
2023-01-10T19:07:34.763Z,19.10
2023-01-10T19:10:12.505Z,19.30
2023-01-10T19:12:47.992Z,40.10
2023-01-10T19:15:29.334Z,26.80
2023-01-10T19:18:15.351Z,24.50
2023-01-10T19:21:05.422Z,25.60
2023-01-10T19:23:41.640Z,23.60
2023-01-10T19:26:17.512Z,22.70
2023-01-10T19:28:58.222Z,19.60
2023-01-10T19:31:37.830Z,20.60
2023-01-10T19:34:25.374Z,19.50
2023-01-10T19:37:21.888Z,27.90
2023-01-10T19:40:17.832Z,45.00
2023-01-10T19:42:54.582Z,36.80
2023-01-10T19:45:49.690Z,25.80
2023-01-10T19:48:45.136Z,23.00
2023-01-10T19:51:31.080Z,22.00
2023-01-10T19:54:27.280Z,23.30
2023-01-10T19:57:03.662Z,23.20
2023-01-10T19:59:41.998Z,23.60
2023-01-10T20:02:37.140Z,25.00
2023-01-10T20:05:12.660Z,24.50
2023-01-10T20:08:09.784Z,22.80
2023-01-10T20:11:01.044Z,25.10
2023-01-10T20:13:56.286Z,25.80
2023-01-10T20:16:42.419Z,25.40
2023-01-10T20:19:38.154Z,26.80
2023-01-10T20:22:13.074Z,28.10
2023-01-10T20:24:47.867Z,27.60
2023-01-10T20:27:33.741Z,30.10
2023-01-10T20:30:09.837Z,30.00
2023-01-10T20:32:47.232Z,28.80
2023-01-10T20:35:26.431Z,30.60
2023-01-10T20:38:21.846Z,31.00
2023-01-10T20:41:18.479Z,28.80
2023-01-10T20:44:04.270Z,28.50
2023-01-10T20:46:39.291Z,26.70
2023-01-10T20:49:26.102Z,24.00
2023-01-10T20:52:00.933Z,23.80
2023-01-10T20:54:39.517Z,23.10
2023-01-10T20:57:17.563Z,22.60
2023-01-10T21:00:14.572Z,21.60
2023-01-10T21:02:58.217Z,19.90
2023-01-10T21:05:51.143Z,21.50
2023-01-10T21:08:46.228Z,20.40
2023-01-10T21:11:21.619Z,20.40
2023-01-10T21:14:16.362Z,22.10
2023-01-10T21:16:59.103Z,22.90
2023-01-10T21:19:42.884Z,21.70
2023-01-10T21:22:20.269Z,22.40
2023-01-10T21:25:05.526Z,20.10
2023-01-10T21:27:59.584Z,20.50
2023-01-10T21:30:47.369Z,21.10
2023-01-10T21:33:41.350Z,22.00
2023-01-10T21:36:35.556Z,20.90
2023-01-10T21:39:20.177Z,20.70
2023-01-10T21:42:12.191Z,21.00
2023-01-10T21:45:07.477Z,21.40
2023-01-10T21:48:01.983Z,20.20
2023-01-10T21:50:56.180Z,19.40
2023-01-10T21:53:34.302Z,18.30
2023-01-10T21:56:19.687Z,17.40
2023-01-10T21:59:14.106Z,17.60
2023-01-10T22:01:51.718Z,17.20
2023-01-10T22:04:28.789Z,16.70
2023-01-10T22:07:02.759Z,17.60
2023-01-10T22:09:57.866Z,16.40
2023-01-10T22:12:52.095Z,15.60
2023-01-10T22:15:29.421Z,17.10
2023-01-10T22:18:17.739Z,19.20
2023-01-10T22:21:11.775Z,18.20
2023-01-10T22:24:06.137Z,17.40
2023-01-10T22:26:42.976Z,17.30
2023-01-10T22:29:17.158Z,16.60
2023-01-10T22:32:11.524Z,17.00
2023-01-10T22:34:45.236Z,16.60
2023-01-10T22:37:29.797Z,17.00
2023-01-10T22:40:24.412Z,16.70
2023-01-10T22:43:00.621Z,17.70
2023-01-10T22:45:34.696Z,18.50
2023-01-10T22:48:08.935Z,17.40
2023-01-10T22:50:51.153Z,18.50
2023-01-10T22:53:35.959Z,16.80
2023-01-10T22:56:30.340Z,17.30
2023-01-10T23:02:33.503Z,19.20
2023-01-10T23:05:18.937Z,20.00
2023-01-10T23:07:55.859Z,19.70
2023-01-10T23:10:51.049Z,18.20
2023-01-10T23:13:25.535Z,21.10
2023-01-10T23:16:15.975Z,22.40
2023-01-10T23:18:52.649Z,20.10
2023-01-10T23:21:26.489Z,22.30
2023-01-10T23:24:21.101Z,22.30
2023-01-10T23:26:55.189Z,21.50
2023-01-10T23:29:29.965Z,22.70
2023-01-10T23:32:07.461Z,20.90
2023-01-10T23:34:41.262Z,21.40
2023-01-10T23:37:26.199Z,21.70
2023-01-10T23:40:12.480Z,22.70
2023-01-10T23:42:57.586Z,23.60
2023-01-10T23:45:52.400Z,26.10
2023-01-10T23:48:26.703Z,22.80
2023-01-10T23:51:03.442Z,25.00
2023-01-10T23:53:51.679Z,25.70
2023-01-10T23:56:45.937Z,26.20
2023-01-10T23:59:29.740Z,25.40
